Time;durP1;ratioP1;P1;durP2;ratioP2;P2;SDS_P1;SDS_P2;PMS_P1;PMS_P2;Temp;Humidity;BMP_temperature;BMP_pressure;BME280_temperature;BME280_humidity;BME280_pressure;Samples;Min_cycle;Max_cycle;Signal;HPM_P1;HPM_P2
2022/04/02 00:01:29;;;;;;;36.58;28.80;;;;;;;;;;4898647;29;20208;-79
2022/04/02 00:03:56;;;;;;;39.00;30.50;;;;;;;;;;4898660;29;20578;-84
2022/04/02 00:06:21;;;;;;;37.42;29.42;;;;;;;;;;4898847;29;20554;-82
2022/04/02 00:08:47;;;;;;;37.20;28.73;;;;;;;;;;4898909;29;20182;-83
2022/04/02 00:11:13;;;;;;;36.70;28.15;;;;;;;;;;4898531;29;20807;-81
2022/04/02 00:13:39;;;;;;;36.67;28.23;;;;;;;;;;4898954;29;20189;-80
2022/04/02 00:16:05;;;;;;;33.57;26.83;;;;;;;;;;4898728;29;20499;-81
2022/04/02 00:18:32;;;;;;;31.42;26.33;;;;;;;;;;4898742;29;20418;-81
2022/04/02 00:20:59;;;;;;;32.40;26.40;;;;;;;;;;4898418;29;20201;-80
2022/04/02 00:23:39;;;;;;;29.48;24.63;;;;;;;;;;4898361;29;20303;-83
2022/04/02 00:26:08;;;;;;;27.95;23.75;;;;;;;;;;4898530;29;20248;-82
2022/04/02 00:28:36;;;;;;;28.92;23.52;;;;;;;;;;4898715;29;20267;-79
2022/04/02 00:31:02;;;;;;;32.47;23.13;;;;;;;;;;4898113;29;20269;-81
2022/04/02 00:33:28;;;;;;;30.00;22.30;;;;;;;;;;4898580;29;20272;-78
2022/04/02 00:35:54;;;;;;;25.83;22.08;;;;;;;;;;4898364;29;20216;-78
2022/04/02 00:38:20;;;;;;;26.35;22.27;;;;;;;;;;4897141;29;20213;-79
2022/04/02 00:40:46;;;;;;;28.48;22.55;;;;;;;;;;4898143;29;20189;-79
2022/04/02 00:43:28;;;;;;;26.77;22.80;;;;;;;;;;4897099;29;20221;-82
2022/04/02 00:45:55;;;;;;;23.85;21.23;;;;;;;;;;4898379;29;20452;-81
2022/04/02 00:48:22;;;;;;;26.05;21.25;;;;;;;;;;4898180;29;20262;-81
2022/04/02 00:50:52;;;;;;;25.88;20.50;;;;;;;;;;4897880;29;20188;-79
2022/04/02 00:53:18;;;;;;;31.85;23.88;;;;;;;;;;4898258;29;20587;-82
2022/04/02 00:55:45;;;;;;;29.38;21.70;;;;;;;;;;4898324;29;20233;-79
2022/04/02 00:58:11;;;;;;;30.63;23.15;;;;;;;;;;4898130;29;20551;-80
2022/04/02 01:00:39;;;;;;;25.70;21.02;;;;;;;;;;4897991;29;20680;-78
2022/04/02 01:03:05;;;;;;;28.27;21.25;;;;;;;;;;4898062;29;20206;-83
2022/04/02 01:05:31;;;;;;;27.77;21.98;;;;;;;;;;4898141;29;20176;-80
2022/04/02 01:07:58;;;;;;;28.38;21.73;;;;;;;;;;4898181;29;20184;-83
2022/04/02 01:10:24;;;;;;;24.80;18.83;;;;;;;;;;4897824;29;20660;-82
2022/04/02 01:12:50;;;;;;;21.60;17.37;;;;;;;;;;4896987;29;20211;-82
2022/04/02 01:15:16;;;;;;;18.55;15.13;;;;;;;;;;4897984;29;20813;-82
2022/04/02 01:17:42;;;;;;;22.08;15.95;;;;;;;;;;4898260;29;20193;-81
2022/04/02 01:20:10;;;;;;;21.03;14.47;;;;;;;;;;4897916;29;20198;-80
2022/04/02 01:22:36;;;;;;;21.75;15.40;;;;;;;;;;4897680;29;20468;-81
2022/04/02 01:25:02;;;;;;;19.73;15.32;;;;;;;;;;4898078;29;20174;-78
2022/04/02 01:27:28;;;;;;;21.13;13.30;;;;;;;;;;4898039;29;20196;-80
2022/04/02 01:29:54;;;;;;;24.38;14.77;;;;;;;;;;4898095;29;20209;-81
2022/04/02 01:32:21;;;;;;;16.90;13.20;;;;;;;;;;4897456;29;20632;-79
2022/04/02 01:34:47;;;;;;;14.85;13.30;;;;;;;;;;4898050;29;20415;-79
2022/04/02 01:37:15;;;;;;;18.52;13.00;;;;;;;;;;4900032;29;20238;-79
2022/04/02 01:39:41;;;;;;;18.83;13.60;;;;;;;;;;4901420;29;20263;-78
2022/04/02 01:42:07;;;;;;;17.08;14.20;;;;;;;;;;4901066;29;20553;-82
2022/04/02 01:44:33;;;;;;;17.55;13.15;;;;;;;;;;4901333;29;20214;-81
2022/04/02 01:47:00;;;;;;;18.75;13.98;;;;;;;;;;4901325;29;20223;-82
2022/04/02 01:49:26;;;;;;;22.35;13.23;;;;;;;;;;4901229;29;20180;-81
2022/04/02 01:51:52;;;;;;;14.95;12.15;;;;;;;;;;4900874;29;20201;-79
2022/04/02 01:54:20;;;;;;;16.80;12.50;;;;;;;;;;4899906;29;20657;-81
2022/04/02 01:56:46;;;;;;;13.15;11.23;;;;;;;;;;4899851;29;20187;-81
2022/04/02 01:59:12;;;;;;;16.10;12.80;;;;;;;;;;4901174;29;20191;-82
2022/04/02 02:01:38;;;;;;;14.65;13.00;;;;;;;;;;4900816;29;20697;-81
2022/04/02 02:04:04;;;;;;;17.08;10.50;;;;;;;;;;4900914;29;20299;-78
2022/04/02 02:06:31;;;;;;;13.38;11.25;;;;;;;;;;4901076;29;20179;-80
2022/04/02 02:08:58;;;;;;;15.70;12.65;;;;;;;;;;4899726;29;20180;-81
2022/04/02 02:11:24;;;;;;;17.35;11.20;;;;;;;;;;4900609;29;20251;-82
2022/04/02 02:13:51;;;;;;;12.88;10.73;;;;;;;;;;4901055;29;20267;-79
2022/04/02 02:16:17;;;;;;;16.73;12.05;;;;;;;;;;4900930;29;20181;-79
2022/04/02 02:18:43;;;;;;;20.13;12.93;;;;;;;;;;4900894;29;20249;-80
2022/04/02 02:21:10;;;;;;;17.38;13.93;;;;;;;;;;4900272;29;20204;-82
2022/04/02 02:23:36;;;;;;;16.35;12.85;;;;;;;;;;4900622;29;20218;-80
2022/04/02 02:26:02;;;;;;;14.20;12.63;;;;;;;;;;4900613;29;20217;-79
2022/04/02 02:28:28;;;;;;;16.43;11.70;;;;;;;;;;4900586;29;20216;-82
2022/04/02 02:30:55;;;;;;;10.93;9.82;;;;;;;;;;4900133;29;20439;-79
2022/04/02 02:36:05;;;;;;;10.45;8.27;;;;;;;;;;4900809;29;20564;-81
2022/04/02 02:38:31;;;;;;;11.25;9.00;;;;;;;;;;4900559;29;20176;-83
2022/04/02 02:40:57;;;;;;;12.77;9.77;;;;;;;;;;4899971;29;20805;-82
2022/04/02 02:43:23;;;;;;;11.88;7.90;;;;;;;;;;4900295;29;20468;-80
2022/04/02 02:45:50;;;;;;;12.60;9.35;;;;;;;;;;4900312;29;20669;-79
2022/04/02 02:48:16;;;;;;;9.80;8.13;;;;;;;;;;4899039;29;20230;-80
2022/04/02 02:50:43;;;;;;;10.90;7.70;;;;;;;;;;4899773;29;20174;-81
2022/04/02 02:53:10;;;;;;;12.00;8.25;;;;;;;;;;4899836;29;20172;-81
2022/04/02 02:55:36;;;;;;;10.48;7.05;;;;;;;;;;4900134;29;20178;-79
2022/04/02 02:58:04;;;;;;;9.07;6.75;;;;;;;;;;4898904;29;20622;-82
2022/04/02 03:00:30;;;;;;;13.20;8.00;;;;;;;;;;4899813;29;20193;-79
2022/04/02 03:02:56;;;;;;;10.10;6.35;;;;;;;;;;4900050;29;20207;-82
2022/04/02 03:05:23;;;;;;;8.20;5.75;;;;;;;;;;4899872;29;20188;-81
2022/04/02 03:07:49;;;;;;;10.10;6.93;;;;;;;;;;4900222;29;20231;-82
2022/04/02 03:10:26;;;;;;;9.63;6.60;;;;;;;;;;4899801;29;20185;-83
2022/04/02 03:12:53;;;;;;;6.72;5.80;;;;;;;;;;4899805;29;20626;-81
2022/04/02 03:15:20;;;;;;;9.55;6.72;;;;;;;;;;4899663;29;20192;-81
2022/04/02 03:17:46;;;;;;;12.00;6.15;;;;;;;;;;4899792;29;20196;-80
2022/04/02 03:20:12;;;;;;;7.35;5.95;;;;;;;;;;4899451;29;20180;-81
2022/04/02 03:22:40;;;;;;;8.18;6.25;;;;;;;;;;4898383;29;20236;-82
2022/04/02 03:25:10;;;;;;;7.82;6.10;;;;;;;;;;4899674;29;20213;-82
2022/04/02 03:27:37;;;;;;;12.98;6.40;;;;;;;;;;4899546;29;20173;-80
2022/04/02 03:30:04;;;;;;;11.73;6.18;;;;;;;;;;4899772;29;20175;-81
2022/04/02 03:32:31;;;;;;;8.35;6.13;;;;;;;;;;4899208;29;20193;-81
2022/04/02 03:34:57;;;;;;;8.45;5.53;;;;;;;;;;4899627;29;20180;-79
2022/04/02 03:37:24;;;;;;;9.27;5.75;;;;;;;;;;4899316;29;20174;-81
2022/04/02 03:39:50;;;;;;;9.40;6.43;;;;;;;;;;4899270;29;20649;-81
2022/04/02 03:42:16;;;;;;;8.80;5.60;;;;;;;;;;4898962;29;20210;-81
2022/04/02 03:44:42;;;;;;;12.02;5.38;;;;;;;;;;4899174;29;20212;-80
2022/04/02 03:47:09;;;;;;;9.52;6.00;;;;;;;;;;4899247;29;20717;-81
2022/04/02 03:49:35;;;;;;;10.57;5.35;;;;;;;;;;4899064;29;20580;-81
2022/04/02 03:52:01;;;;;;;8.25;5.40;;;;;;;;;;4898847;29;20204;-81
2022/04/02 03:54:27;;;;;;;6.65;5.45;;;;;;;;;;4899099;29;20308;-79
2022/04/02 03:56:53;;;;;;;7.95;5.90;;;;;;;;;;4899099;29;20183;-80
2022/04/02 03:59:20;;;;;;;8.20;6.40;;;;;;;;;;4898944;29;20180;-82
2022/04/02 04:01:46;;;;;;;6.75;5.18;;;;;;;;;;4898519;29;20219;-81
2022/04/02 04:04:13;;;;;;;11.57;6.40;;;;;;;;;;4898858;29;20651;-79
2022/04/02 04:06:39;;;;;;;10.40;5.60;;;;;;;;;;4897641;29;20429;-81
2022/04/02 04:09:05;;;;;;;12.77;6.75;;;;;;;;;;4898826;29;20185;-81
2022/04/02 04:11:32;;;;;;;15.18;9.70;;;;;;;;;;4898362;29;20203;-82
2022/04/02 04:13:58;;;;;;;11.77;9.43;;;;;;;;;;4898790;29;20628;-83
2022/04/02 04:16:24;;;;;;;16.80;11.30;;;;;;;;;;4898947;29;20271;-83
2022/04/02 04:18:50;;;;;;;7.30;5.33;;;;;;;;;;4898750;29;20913;-81
2022/04/02 04:21:17;;;;;;;13.60;7.78;;;;;;;;;;4898338;29;20448;-84
2022/04/02 04:23:43;;;;;;;8.70;5.70;;;;;;;;;;4898155;29;20215;-82
2022/04/02 04:26:09;;;;;;;6.80;5.00;;;;;;;;;;4898541;29;20615;-80
2022/04/02 04:28:37;;;;;;;7.35;5.32;;;;;;;;;;4898563;29;20554;-79
2022/04/02 04:31:03;;;;;;;10.77;7.60;;;;;;;;;;4898128;29;20213;-83
2022/04/02 04:33:28;;;;;;;6.07;5.10;;;;;;;;;;4898564;29;20184;-81
2022/04/02 04:35:54;;;;;;;6.43;5.25;;;;;;;;;;4898428;29;20199;-81
2022/04/02 04:38:20;;;;;;;4.97;3.80;;;;;;;;;;4898394;29;20251;-81
2022/04/02 04:40:46;;;;;;;6.23;4.27;;;;;;;;;;4898225;29;20431;-83
2022/04/02 04:43:12;;;;;;;8.65;5.00;;;;;;;;;;4898280;29;20506;-82
2022/04/02 04:45:38;;;;;;;5.30;3.87;;;;;;;;;;4898321;29;20274;-81
2022/04/02 04:48:04;;;;;;;5.57;4.37;;;;;;;;;;4898276;29;20491;-80
2022/04/02 04:50:31;;;;;;;5.25;4.28;;;;;;;;;;4898078;29;20785;-80
2022/04/02 04:52:57;;;;;;;7.95;4.50;;;;;;;;;;4898263;29;20180;-82
2022/04/02 04:55:23;;;;;;;6.10;4.35;;;;;;;;;;4898184;29;20180;-82
2022/04/02 04:57:50;;;;;;;12.98;4.88;;;;;;;;;;4898186;29;20597;-82
2022/04/02 05:00:16;;;;;;;6.25;4.25;;;;;;;;;;4897853;29;20637;-81
2022/04/02 05:02:45;;;;;;;7.72;3.88;;;;;;;;;;4898046;29;20206;-83
2022/04/02 05:05:14;;;;;;;4.97;3.97;;;;;;;;;;4898100;29;20542;-80
2022/04/02 05:07:41;;;;;;;6.00;4.78;;;;;;;;;;4898378;29;20172;-80
2022/04/02 05:10:07;;;;;;;5.45;3.75;;;;;;;;;;4898139;29;20256;-80
2022/04/02 05:12:34;;;;;;;5.57;4.15;;;;;;;;;;4899239;29;20200;-81
2022/04/02 05:15:00;;;;;;;10.98;4.60;;;;;;;;;;4902120;29;20183;-80
2022/04/02 05:17:26;;;;;;;6.43;4.17;;;;;;;;;;4901971;29;20185;-78
2022/04/02 05:19:52;;;;;;;4.50;3.70;;;;;;;;;;4902038;29;20421;-81
2022/04/02 05:22:18;;;;;;;5.75;4.30;;;;;;;;;;4901271;29;20630;-80
2022/04/02 05:24:44;;;;;;;5.72;4.18;;;;;;;;;;4900496;29;20224;-81
2022/04/02 05:27:10;;;;;;;6.20;4.28;;;;;;;;;;4901723;29;20186;-81
2022/04/02 05:29:36;;;;;;;7.55;4.40;;;;;;;;;;4900549;29;20185;-79
2022/04/02 05:32:03;;;;;;;4.35;3.30;;;;;;;;;;4901467;29;20200;-80
2022/04/02 05:34:30;;;;;;;6.28;4.10;;;;;;;;;;4901791;29;20214;-79
2022/04/02 05:36:56;;;;;;;8.50;4.10;;;;;;;;;;4901824;29;20179;-79
2022/04/02 05:39:22;;;;;;;8.23;4.70;;;;;;;;;;4901404;29;20247;-79
2022/04/02 05:41:48;;;;;;;4.97;3.93;;;;;;;;;;4901045;29;20219;-83
2022/04/02 05:44:14;;;;;;;6.30;3.55;;;;;;;;;;4901245;29;20480;-82
2022/04/02 05:46:40;;;;;;;6.20;4.50;;;;;;;;;;4901387;29;20263;-80
2022/04/02 05:49:06;;;;;;;6.18;4.35;;;;;;;;;;4901373;29;20187;-79
2022/04/02 05:51:33;;;;;;;6.30;3.80;;;;;;;;;;4900866;29;20202;-78
2022/04/02 05:53:59;;;;;;;5.07;4.15;;;;;;;;;;4901266;29;20259;-81
2022/04/02 05:56:26;;;;;;;5.35;4.85;;;;;;;;;;4901122;29;20184;-78
2022/04/02 05:58:53;;;;;;;9.85;4.32;;;;;;;;;;4901069;29;20176;-80
2022/04/02 06:01:19;;;;;;;5.55;3.30;;;;;;;;;;4900677;29;20241;-79
2022/04/02 06:03:47;;;;;;;5.65;3.83;;;;;;;;;;4900990;29;20674;-82
2022/04/02 06:06:13;;;;;;;5.57;4.50;;;;;;;;;;4900963;29;20170;-80
2022/04/02 06:08:38;;;;;;;7.30;3.85;;;;;;;;;;4900875;29;20192;-79
2022/04/02 06:11:07;;;;;;;4.75;3.40;;;;;;;;;;4900674;29;20226;-79
2022/04/02 06:13:34;;;;;;;4.88;3.67;;;;;;;;;;4900853;29;20595;-79
2022/04/02 06:16:00;;;;;;;4.88;4.30;;;;;;;;;;4900882;29;20241;-78
2022/04/02 06:18:26;;;;;;;8.43;4.00;;;;;;;;;;4900794;29;20217;-81
2022/04/02 06:20:52;;;;;;;7.80;4.27;;;;;;;;;;4900665;29;20282;-81
2022/04/02 06:23:18;;;;;;;5.07;3.93;;;;;;;;;;4900454;29;20525;-79
2022/04/02 06:25:44;;;;;;;9.38;5.43;;;;;;;;;;4900802;29;20416;-79
2022/04/02 06:28:11;;;;;;;5.80;4.53;;;;;;;;;;4900689;29;20179;-80
2022/04/02 06:30:37;;;;;;;6.40;4.70;;;;;;;;;;4900388;29;20180;-81
2022/04/02 06:33:04;;;;;;;4.45;3.97;;;;;;;;;;4900640;29;20188;-80
2022/04/02 06:35:30;;;;;;;6.03;3.80;;;;;;;;;;4899533;29;20189;-80
2022/04/02 06:37:57;;;;;;;4.18;3.50;;;;;;;;;;4900468;29;20267;-81
2022/04/02 06:40:24;;;;;;;7.05;4.43;;;;;;;;;;4900120;29;20196;-80
2022/04/02 06:42:51;;;;;;;3.13;2.83;;;;;;;;;;4900057;29;20202;-81
2022/04/02 06:45:17;;;;;;;3.45;3.03;;;;;;;;;;4900454;29;20236;-80
2022/04/02 06:47:43;;;;;;;3.77;3.03;;;;;;;;;;4900402;29;20267;-80
2022/04/02 06:50:10;;;;;;;3.40;3.10;;;;;;;;;;4900231;29;20420;-79
2022/04/02 06:52:36;;;;;;;4.15;3.67;;;;;;;;;;4900056;29;20725;-78
2022/04/02 06:55:03;;;;;;;7.07;4.65;;;;;;;;;;4900099;29;20187;-80
2022/04/02 06:57:29;;;;;;;5.07;4.57;;;;;;;;;;4900088;29;20207;-79
2022/04/02 06:59:55;;;;;;;6.63;5.07;;;;;;;;;;4900174;29;20193;-80
2022/04/02 07:02:21;;;;;;;7.28;4.38;;;;;;;;;;4899750;29;20200;-80
2022/04/02 07:04:48;;;;;;;5.38;4.72;;;;;;;;;;4899775;29;20216;-80
2022/04/02 07:07:14;;;;;;;5.10;4.50;;;;;;;;;;4899815;29;20176;-80
2022/04/02 07:09:40;;;;;;;8.10;3.77;;;;;;;;;;4899882;29;20601;-80
2022/04/02 07:12:06;;;;;;;6.93;4.47;;;;;;;;;;4899724;29;20433;-79
2022/04/02 07:14:33;;;;;;;10.48;3.90;;;;;;;;;;4900097;29;20184;-80
2022/04/02 07:16:59;;;;;;;6.53;4.80;;;;;;;;;;4899653;29;20181;-79
2022/04/02 07:19:25;;;;;;;5.05;3.72;;;;;;;;;;4899611;29;20238;-78
2022/04/02 07:21:53;;;;;;;7.20;3.45;;;;;;;;;;4899334;29;20200;-79
2022/04/02 07:24:19;;;;;;;4.78;3.70;;;;;;;;;;4899279;29;20251;-79
2022/04/02 07:26:46;;;;;;;6.55;3.72;;;;;;;;;;4899513;29;20184;-81
2022/04/02 07:29:12;;;;;;;4.63;3.53;;;;;;;;;;4899310;29;20212;-81
2022/04/02 07:31:39;;;;;;;4.65;3.25;;;;;;;;;;4899156;29;20200;-81
2022/04/02 07:34:05;;;;;;;4.53;4.07;;;;;;;;;;4898929;29;20203;-79
2022/04/02 07:36:51;;;;;;;4.45;3.47;;;;;;;;;;4898252;29;20180;-79
2022/04/02 07:39:21;;;;;;;3.88;3.40;;;;;;;;;;4898610;29;20216;-81
2022/04/02 07:41:48;;;;;;;4.30;3.90;;;;;;;;;;4899104;29;20595;-79
2022/04/02 07:44:25;;;;;;;4.00;3.05;;;;;;;;;;4899260;29;20205;-80
2022/04/02 07:46:52;;;;;;;3.50;3.17;;;;;;;;;;4899174;29;20204;-79
2022/04/02 07:49:22;;;;;;;5.40;3.70;;;;;;;;;;4899064;29;20181;-79
2022/04/02 07:51:53;;;;;;;6.75;3.47;;;;;;;;;;4898761;29;20197;-81
2022/04/02 07:54:22;;;;;;;6.25;3.78;;;;;;;;;;4908348;29;20526;-80
2022/04/02 07:56:50;;;;;;;5.40;4.05;;;;;;;;;;4916780;29;20208;-80
2022/04/02 07:59:42;;;;;;;5.63;4.28;;;;;;;;;;4916063;29;20187;-79
2022/04/02 08:02:36;;;;;;;4.35;3.67;;;;;;;;;;4930782;29;20211;-80
2022/04/02 08:04:59;;;;;;;8.70;3.80;;;;;;;;;;4916786;29;20600;-81
2022/04/02 08:07:25;;;;;;;4.47;3.70;;;;;;;;;;4917529;29;20259;-80
2022/04/02 08:09:52;;;;;;;3.40;2.63;;;;;;;;;;4917677;29;20194;-83
2022/04/02 08:12:18;;;;;;;5.88;4.28;;;;;;;;;;4917270;29;20210;-82
2022/04/02 08:14:44;;;;;;;4.70;3.75;;;;;;;;;;4917611;29;20188;-80
2022/04/02 08:17:10;;;;;;;7.82;3.80;;;;;;;;;;4917756;29;20706;-80
2022/04/02 08:19:37;;;;;;;4.13;3.08;;;;;;;;;;4917393;29;20183;-81
2022/04/02 08:22:03;;;;;;;5.38;3.80;;;;;;;;;;4917057;29;20201;-81
2022/04/02 08:24:29;;;;;;;4.18;3.05;;;;;;;;;;4917304;29;20317;-80
2022/04/02 08:26:58;;;;;;;6.47;3.40;;;;;;;;;;4917656;29;20258;-80
2022/04/02 08:29:33;;;;;;;5.32;3.65;;;;;;;;;;4917383;29;20404;-80
2022/04/02 08:32:08;;;;;;;5.70;4.15;;;;;;;;;;4916820;29;20198;-82
2022/04/02 08:34:41;;;;;;;3.92;3.47;;;;;;;;;;4917463;29;20222;-82
2022/04/02 08:37:12;;;;;;;5.15;3.70;;;;;;;;;;4917383;29;20645;-82
2022/04/02 08:39:50;;;;;;;5.25;3.92;;;;;;;;;;4917179;29;20283;-81
2022/04/02 08:42:19;;;;;;;25.25;18.38;;;;;;;;;;4916999;29;20739;-79
2022/04/02 08:45:04;;;;;;;11.02;10.00;;;;;;;;;;4917115;29;20201;-82
2022/04/02 08:47:30;;;;;;;17.67;14.20;;;;;;;;;;4931486;29;20714;-81
2022/04/02 08:50:22;;;;;;;8.00;7.27;;;;;;;;;;4917162;29;20180;-79
2022/04/02 08:52:53;;;;;;;4.82;4.32;;;;;;;;;;4916694;29;20534;-81
2022/04/02 08:55:24;;;;;;;7.00;5.68;;;;;;;;;;4916968;29;20648;-80
2022/04/02 08:57:53;;;;;;;7.30;5.88;;;;;;;;;;4916798;29;20191;-79
2022/04/02 09:00:23;;;;;;;5.50;4.97;;;;;;;;;;4916694;29;20185;-79
2022/04/02 09:02:58;;;;;;;5.82;5.28;;;;;;;;;;4917162;29;20195;-78
2022/04/02 09:05:27;;;;;;;9.40;6.95;;;;;;;;;;4916863;29;20543;-78
2022/04/02 09:08:05;;;;;;;6.05;3.75;;;;;;;;;;4916774;29;20552;-79
2022/04/02 09:10:31;;;;;;;12.98;4.20;;;;;;;;;;4930990;29;20270;-78
2022/04/02 09:13:13;;;;;;;7.73;5.10;;;;;;;;;;4916849;29;20276;-78
2022/04/02 09:15:58;;;;;;;6.53;5.70;;;;;;;;;;4916768;29;20431;-78
2022/04/02 09:18:23;;;;;;;7.05;4.00;;;;;;;;;;4931296;29;20179;-77
2022/04/02 09:20:57;;;;;;;6.30;5.30;;;;;;;;;;4916460;29;20182;-78
2022/04/02 09:23:45;;;;;;;6.30;5.18;;;;;;;;;;4916829;29;20471;-77
2022/04/02 09:26:21;;;;;;;6.72;4.57;;;;;;;;;;4916843;29;20205;-77
2022/04/02 09:28:53;;;;;;;13.82;7.50;;;;;;;;;;4916843;29;20194;-77
2022/04/02 09:31:20;;;;;;;5.53;4.65;;;;;;;;;;4916403;29;20255;-78
2022/04/02 09:33:53;;;;;;;4.50;3.97;;;;;;;;;;4916633;29;20187;-77
2022/04/02 09:36:36;;;;;;;10.98;9.90;;;;;;;;;;4916624;29;20195;-77
2022/04/02 09:39:04;;;;;;;6.32;5.60;;;;;;;;;;4916747;29;20679;-77
2022/04/02 09:41:30;;;;;;;10.63;9.65;;;;;;;;;;4916211;29;20251;-77
2022/04/02 09:43:56;;;;;;;10.70;5.97;;;;;;;;;;4916489;29;20216;-77
2022/04/02 09:46:22;;;;;;;5.75;4.20;;;;;;;;;;4930935;29;20817;-78
2022/04/02 09:49:00;;;;;;;4.63;3.40;;;;;;;;;;4916537;29;20175;-76
2022/04/02 09:51:35;;;;;;;8.68;4.60;;;;;;;;;;4916219;29;20450;-78
2022/04/02 09:54:05;;;;;;;4.28;3.40;;;;;;;;;;4916590;29;20267;-77
2022/04/02 09:56:35;;;;;;;3.50;3.13;;;;;;;;;;4916385;29;20219;-77
2022/04/02 09:59:07;;;;;;;4.00;3.30;;;;;;;;;;4919535;29;20180;-77
2022/04/02 10:01:35;;;;;;;4.20;3.67;;;;;;;;;;4919535;29;20256;-78
2022/04/02 10:04:05;;;;;;;4.43;3.75;;;;;;;;;;4919645;29;20605;-79
2022/04/02 10:06:35;;;;;;;3.40;3.10;;;;;;;;;;4919736;29;20197;-78
2022/04/02 10:09:05;;;;;;;5.07;3.83;;;;;;;;;;4919818;29;20183;-78
2022/04/02 10:11:33;;;;;;;5.20;3.80;;;;;;;;;;4919316;29;20195;-79
2022/04/02 10:14:00;;;;;;;3.45;2.70;;;;;;;;;;4919579;29;20648;-78
2022/04/02 10:16:26;;;;;;;3.42;3.13;;;;;;;;;;4919468;29;20180;-80
2022/04/02 10:18:53;;;;;;;6.15;3.95;;;;;;;;;;4919687;29;20182;-78
2022/04/02 10:21:20;;;;;;;5.25;3.50;;;;;;;;;;4919209;29;20203;-79
2022/04/02 10:23:51;;;;;;;6.07;4.15;;;;;;;;;;4919379;29;20304;-80
2022/04/02 10:26:18;;;;;;;4.13;3.70;;;;;;;;;;4919530;29;20174;-79
2022/04/02 10:28:51;;;;;;;4.15;3.30;;;;;;;;;;4919382;29;20591;-79
2022/04/02 10:31:37;;;;;;;4.20;3.42;;;;;;;;;;4919259;29;20617;-80
2022/04/02 10:34:07;;;;;;;2.72;2.47;;;;;;;;;;4919493;29;20184;-79
2022/04/02 10:36:37;;;;;;;4.05;3.42;;;;;;;;;;4919439;29;20542;-79
2022/04/02 10:39:03;;;;;;;2.97;2.60;;;;;;;;;;4919437;29;20262;-79
2022/04/02 10:41:30;;;;;;;5.32;3.20;;;;;;;;;;4919025;29;20198;-79
2022/04/02 10:44:25;;;;;;;5.80;3.35;;;;;;;;;;4919288;29;20201;-79
2022/04/02 10:46:53;;;;;;;7.35;3.10;;;;;;;;;;4916869;29;20198;-80
2022/04/02 10:49:27;;;;;;;3.90;2.83;;;;;;;;;;4919198;29;20174;-79
2022/04/02 10:51:53;;;;;;;4.65;3.17;;;;;;;;;;4918726;29;20205;-80
2022/04/02 10:54:26;;;;;;;5.10;2.90;;;;;;;;;;4918945;29;20200;-80
2022/04/02 10:56:54;;;;;;;3.38;2.72;;;;;;;;;;4919001;29;20181;-78
2022/04/02 10:59:21;;;;;;;3.00;2.70;;;;;;;;;;4918944;29;20242;-79
2022/04/02 11:01:49;;;;;;;5.30;2.97;;;;;;;;;;4918612;29;20199;-79
2022/04/02 11:04:30;;;;;;;3.35;2.70;;;;;;;;;;4918748;29;20297;-78
2022/04/02 11:06:57;;;;;;;4.82;3.40;;;;;;;;;;4918590;29;20177;-76
2022/04/02 11:09:22;;;;;;;5.47;3.55;;;;;;;;;;4917788;29;20181;-75
2022/04/02 11:11:48;;;;;;;4.43;3.30;;;;;;;;;;4918372;29;20194;-76
2022/04/02 11:14:20;;;;;;;3.28;2.90;;;;;;;;;;4918626;29;20532;-77
2022/04/02 11:16:46;;;;;;;4.35;3.17;;;;;;;;;;4918542;29;20193;-76
2022/04/02 11:22:06;;;;;;;3.65;2.95;;;;;;;;;;4918703;29;20225;-75
2022/04/02 11:24:35;;;;;;;6.45;3.58;;;;;;;;;;4918497;29;20707;-76
2022/04/02 11:27:02;;;;;;;3.83;3.03;;;;;;;;;;4918400;29;20671;-75
2022/04/02 11:29:30;;;;;;;4.72;2.78;;;;;;;;;;4918385;29;20181;-76
2022/04/02 11:31:59;;;;;;;7.90;4.38;;;;;;;;;;4917943;29;20202;-77
2022/04/02 11:34:28;;;;;;;4.25;2.83;;;;;;;;;;4932937;29;20174;-77
2022/04/02 11:37:06;;;;;;;2.60;2.40;;;;;;;;;;4918231;29;20186;-76
2022/04/02 11:39:38;;;;;;;5.70;3.47;;;;;;;;;;4918058;29;20691;-75
2022/04/02 11:42:06;;;;;;;5.20;3.35;;;;;;;;;;4917502;29;20602;-75
2022/04/02 11:44:36;;;;;;;4.00;3.38;;;;;;;;;;4917994;29;20241;-76
2022/04/02 11:47:04;;;;;;;3.22;2.83;;;;;;;;;;4932552;29;20197;-77
2022/04/02 11:52:10;;;;;;;7.05;4.25;;;;;;;;;;5524821;23;20274;-77
2022/04/02 11:54:41;;;;;;;4.60;4.20;;;;;;;;;;4967236;28;20683;-75
2022/04/02 11:57:11;;;;;;;9.57;3.78;;;;;;;;;;4971266;28;20181;-75
2022/04/02 11:59:37;;;;;;;4.68;3.65;;;;;;;;;;4974790;28;20172;-76
2022/04/02 12:02:04;;;;;;;4.13;3.53;;;;;;;;;;4974523;28;20187;-77
2022/04/02 12:04:30;;;;;;;4.15;2.85;;;;;;;;;;4975070;28;20208;-76
2022/04/02 12:07:06;;;;;;;5.60;3.45;;;;;;;;;;4974869;28;20180;-76
2022/04/02 12:09:33;;;;;;;7.70;3.40;;;;;;;;;;4974761;28;20206;-75
2022/04/02 12:12:03;;;;;;;4.97;4.05;;;;;;;;;;4974330;28;20196;-74
2022/04/02 12:14:37;;;;;;;5.25;3.95;;;;;;;;;;4974655;28;20323;-75
2022/04/02 12:17:04;;;;;;;3.47;3.17;;;;;;;;;;4974555;28;20267;-75
2022/04/02 12:19:47;;;;;;;7.00;3.47;;;;;;;;;;4974627;28;20525;-77
2022/04/02 12:22:17;;;;;;;4.65;3.58;;;;;;;;;;4974142;28;20206;-77
2022/04/02 12:24:47;;;;;;;4.47;3.58;;;;;;;;;;4974498;28;20266;-77
2022/04/02 12:27:16;;;;;;;3.65;3.10;;;;;;;;;;4974419;28;20173;-76
2022/04/02 12:29:46;;;;;;;4.55;3.33;;;;;;;;;;4974407;28;20191;-75
2022/04/02 12:32:12;;;;;;;6.32;4.25;;;;;;;;;;4974095;28;20333;-76
2022/04/02 12:34:38;;;;;;;5.40;3.85;;;;;;;;;;4974355;28;20184;-76
2022/04/02 12:37:04;;;;;;;5.43;3.90;;;;;;;;;;4974315;28;20187;-75
2022/04/02 12:39:31;;;;;;;6.43;3.30;;;;;;;;;;4974300;28;20203;-77
2022/04/02 12:41:57;;;;;;;8.15;4.57;;;;;;;;;;4988812;28;20260;-74
2022/04/02 12:44:23;;;;;;;5.80;3.87;;;;;;;;;;4974319;28;20732;-77
2022/04/02 12:46:51;;;;;;;5.88;3.58;;;;;;;;;;4974337;28;20418;-77
2022/04/02 12:49:47;;;;;;;4.50;3.70;;;;;;;;;;4974147;28;20179;-77
2022/04/02 12:52:17;;;;;;;4.32;3.92;;;;;;;;;;5433338;23;20260;-77
2022/04/02 12:54:44;;;;;;;4.60;3.95;;;;;;;;;;4954947;28;20601;-76
2022/04/02 12:57:12;;;;;;;8.15;4.13;;;;;;;;;;4954588;28;20195;-77
2022/04/02 12:59:41;;;;;;;4.00;3.25;;;;;;;;;;4954717;28;20717;-76
2022/04/02 13:02:07;;;;;;;4.30;3.90;;;;;;;;;;4954408;28;20197;-77
2022/04/02 13:04:34;;;;;;;5.50;3.95;;;;;;;;;;4954641;28;20258;-77
2022/04/02 13:07:03;;;;;;;4.68;4.10;;;;;;;;;;4954760;28;20180;-77
2022/04/02 13:09:33;;;;;;;6.03;4.05;;;;;;;;;;4954687;28;20591;-76
2022/04/02 13:12:00;;;;;;;4.75;4.28;;;;;;;;;;4954104;28;20640;-75
2022/04/02 13:14:27;;;;;;;5.38;4.22;;;;;;;;;;4954721;28;20181;-76
2022/04/02 13:16:55;;;;;;;5.32;4.82;;;;;;;;;;4954702;28;20173;-75
2022/04/02 13:22:12;;;;;;;5.22;4.70;;;;;;;;;;4954427;28;20572;-77
2022/04/02 13:24:44;;;;;;;6.15;5.55;;;;;;;;;;4969515;28;20570;-78
2022/04/02 13:27:11;;;;;;;6.72;5.10;;;;;;;;;;4969567;28;20188;-78
2022/04/02 13:30:01;;;;;;;5.53;4.70;;;;;;;;;;4954920;28;20173;-77
2022/04/02 13:32:39;;;;;;;5.70;5.20;;;;;;;;;;4955163;28;20572;-80
2022/04/02 13:35:09;;;;;;;5.30;4.78;;;;;;;;;;4958387;28;20259;-78
2022/04/02 13:37:43;;;;;;;8.02;7.22;;;;;;;;;;4958450;28;20191;-74
2022/04/02 13:40:13;;;;;;;8.05;6.95;;;;;;;;;;4957955;28;20188;-75
2022/04/02 13:42:44;;;;;;;8.30;5.30;;;;;;;;;;4958429;28;20203;-76
2022/04/02 13:45:12;;;;;;;6.68;5.75;;;;;;;;;;4958396;28;20245;-77
2022/04/02 13:47:41;;;;;;;6.00;5.03;;;;;;;;;;4958487;28;20674;-74
2022/04/02 13:50:09;;;;;;;7.72;5.60;;;;;;;;;;4958225;28;20515;-78
2022/04/02 13:52:37;;;;;;;8.40;5.28;;;;;;;;;;4958013;28;20220;-79
2022/04/02 13:55:13;;;;;;;5.85;5.22;;;;;;;;;;4955680;28;20184;-78
2022/04/02 13:57:40;;;;;;;7.90;7.30;;;;;;;;;;4955700;28;20195;-78
2022/04/02 14:00:09;;;;;;;7.78;7.18;;;;;;;;;;4956221;28;20185;-75
2022/04/02 14:02:36;;;;;;;7.07;3.70;;;;;;;;;;4955975;28;20210;-77
2022/04/02 14:05:08;;;;;;;4.45;4.05;;;;;;;;;;4956283;28;20209;-78
2022/04/02 14:07:36;;;;;;;6.60;4.50;;;;;;;;;;4971940;28;20203;-78
2022/04/02 14:10:06;;;;;;;5.43;4.90;;;;;;;;;;4955742;28;20177;-77
2022/04/02 14:12:37;;;;;;;4.60;4.20;;;;;;;;;;4971266;28;20220;-76
2022/04/02 14:15:09;;;;;;;5.20;4.43;;;;;;;;;;4956514;28;20272;-76
2022/04/02 14:17:39;;;;;;;7.38;4.97;;;;;;;;;;4956146;28;20185;-75
2022/04/02 14:20:07;;;;;;;5.95;5.45;;;;;;;;;;4956183;28;20985;-76
2022/04/02 14:22:37;;;;;;;8.63;5.65;;;;;;;;;;4956201;28;20208;-77
2022/04/02 14:25:09;;;;;;;5.65;4.95;;;;;;;;;;4955824;28;20209;-78
2022/04/02 14:27:35;;;;;;;4.13;3.70;;;;;;;;;;4956726;28;20191;-77
2022/04/02 14:30:08;;;;;;;10.27;9.48;;;;;;;;;;4956163;28;20270;-74
2022/04/02 14:32:59;;;;;;;9.60;8.65;;;;;;;;;;4955004;28;20315;-75
2022/04/02 14:35:40;;;;;;;4.70;4.20;;;;;;;;;;4955767;28;20185;-79
2022/04/02 14:38:19;;;;;;;6.32;4.05;;;;;;;;;;4954739;28;20185;-78
2022/04/02 14:40:51;;;;;;;5.28;3.85;;;;;;;;;;4954872;28;20184;-78
2022/04/02 14:43:20;;;;;;;4.90;4.50;;;;;;;;;;4954814;28;20208;-77
2022/04/02 14:45:59;;;;;;;6.85;6.15;;;;;;;;;;4956332;28;20189;-78
2022/04/02 14:48:27;;;;;;;5.50;3.63;;;;;;;;;;4954692;28;20566;-73
2022/04/02 14:51:27;;;;;;;3.95;3.65;;;;;;;;;;4955366;28;20783;-78
2022/04/02 14:54:12;;;;;;;6.88;4.88;;;;;;;;;;4955638;28;20192;-77
2022/04/02 14:56:56;;;;;;;8.55;5.18;;;;;;;;;;4955521;28;20228;-77